sensor_id;sensor_type;location;lat;lon;timestamp;P1;durP1;ratioP1;P2;durP2;ratioP2
14984;SDS011;7588;62.368;25.902;2022-08-19T00:01:50;44.03;;;35.20;;
14984;SDS011;7588;62.368;25.902;2022-08-19T00:04:18;41.05;;;33.42;;
14984;SDS011;7588;62.368;25.902;2022-08-19T00:06:55;38.83;;;32.35;;
14984;SDS011;7588;62.368;25.902;2022-08-19T00:09:22;43.17;;;32.70;;
14984;SDS011;7588;62.368;25.902;2022-08-19T00:11:49;35.95;;;30.45;;
14984;SDS011;7588;62.368;25.902;2022-08-19T00:14:16;37.17;;;33.15;;
14984;SDS011;7588;62.368;25.902;2022-08-19T00:16:43;38.63;;;33.67;;
14984;SDS011;7588;62.368;25.902;2022-08-19T00:19:10;40.97;;;33.22;;
14984;SDS011;7588;62.368;25.902;2022-08-19T00:21:36;41.20;;;35.70;;
14984;SDS011;7588;62.368;25.902;2022-08-19T00:24:08;39.50;;;33.67;;
14984;SDS011;7588;62.368;25.902;2022-08-19T00:26:35;38.83;;;33.58;;
14984;SDS011;7588;62.368;25.902;2022-08-19T00:29:02;37.08;;;32.25;;
14984;SDS011;7588;62.368;25.902;2022-08-19T00:31:29;47.40;;;35.75;;
14984;SDS011;7588;62.368;25.902;2022-08-19T00:33:56;43.50;;;36.45;;
14984;SDS011;7588;62.368;25.902;2022-08-19T00:36:22;44.00;;;37.15;;
14984;SDS011;7588;62.368;25.902;2022-08-19T00:38:48;43.10;;;36.72;;
14984;SDS011;7588;62.368;25.902;2022-08-19T00:41:17;41.45;;;34.60;;
14984;SDS011;7588;62.368;25.902;2022-08-19T00:43:59;45.25;;;36.08;;
14984;SDS011;7588;62.368;25.902;2022-08-19T00:46:27;43.50;;;35.33;;
14984;SDS011;7588;62.368;25.902;2022-08-19T00:48:54;46.22;;;36.92;;
14984;SDS011;7588;62.368;25.902;2022-08-19T00:51:22;42.88;;;36.15;;
14984;SDS011;7588;62.368;25.902;2022-08-19T00:53:50;43.08;;;35.92;;
14984;SDS011;7588;62.368;25.902;2022-08-19T00:56:15;41.45;;;35.50;;
14984;SDS011;7588;62.368;25.902;2022-08-19T00:58:42;36.80;;;32.83;;
14984;SDS011;7588;62.368;25.902;2022-08-19T01:01:08;41.97;;;35.28;;
14984;SDS011;7588;62.368;25.902;2022-08-19T01:03:34;39.72;;;34.60;;
14984;SDS011;7588;62.368;25.902;2022-08-19T01:06:00;40.75;;;34.55;;
14984;SDS011;7588;62.368;25.902;2022-08-19T01:08:26;41.88;;;34.60;;
14984;SDS011;7588;62.368;25.902;2022-08-19T01:10:52;43.50;;;36.22;;
14984;SDS011;7588;62.368;25.902;2022-08-19T01:13:25;45.70;;;36.85;;
14984;SDS011;7588;62.368;25.902;2022-08-19T01:15:58;42.40;;;34.78;;
14984;SDS011;7588;62.368;25.902;2022-08-19T01:18:27;44.70;;;34.58;;
14984;SDS011;7588;62.368;25.902;2022-08-19T01:20:55;43.13;;;34.95;;
14984;SDS011;7588;62.368;25.902;2022-08-19T01:23:25;41.03;;;35.05;;
14984;SDS011;7588;62.368;25.902;2022-08-19T01:26:08;42.67;;;34.83;;
14984;SDS011;7588;62.368;25.902;2022-08-19T01:28:35;41.25;;;34.70;;
14984;SDS011;7588;62.368;25.902;2022-08-19T01:31:02;43.88;;;36.13;;
14984;SDS011;7588;62.368;25.902;2022-08-19T01:33:28;42.85;;;36.35;;
14984;SDS011;7588;62.368;25.902;2022-08-19T01:36:03;44.75;;;36.30;;
14984;SDS011;7588;62.368;25.902;2022-08-19T01:38:30;41.90;;;36.25;;
14984;SDS011;7588;62.368;25.902;2022-08-19T01:40:56;47.63;;;35.90;;
14984;SDS011;7588;62.368;25.902;2022-08-19T01:43:23;45.05;;;35.42;;
14984;SDS011;7588;62.368;25.902;2022-08-19T01:45:49;44.80;;;38.03;;
14984;SDS011;7588;62.368;25.902;2022-08-19T01:48:15;44.65;;;37.00;;
14984;SDS011;7588;62.368;25.902;2022-08-19T01:50:41;39.33;;;34.72;;
14984;SDS011;7588;62.368;25.902;2022-08-19T01:53:09;44.92;;;34.22;;
14984;SDS011;7588;62.368;25.902;2022-08-19T01:55:37;38.42;;;32.78;;
14984;SDS011;7588;62.368;25.902;2022-08-19T01:58:04;42.70;;;36.30;;
14984;SDS011;7588;62.368;25.902;2022-08-19T02:00:33;47.72;;;36.20;;
14984;SDS011;7588;62.368;25.902;2022-08-19T02:02:58;45.63;;;37.00;;
14984;SDS011;7588;62.368;25.902;2022-08-19T02:05:26;43.00;;;34.42;;
14984;SDS011;7588;62.368;25.902;2022-08-19T02:07:56;48.63;;;37.58;;
14984;SDS011;7588;62.368;25.902;2022-08-19T02:10:23;54.03;;;37.83;;
14984;SDS011;7588;62.368;25.902;2022-08-19T02:12:49;45.28;;;35.70;;
14984;SDS011;7588;62.368;25.902;2022-08-19T02:15:16;47.83;;;37.30;;
14984;SDS011;7588;62.368;25.902;2022-08-19T02:17:44;47.90;;;37.30;;
14984;SDS011;7588;62.368;25.902;2022-08-19T02:20:11;45.17;;;36.67;;
14984;SDS011;7588;62.368;25.902;2022-08-19T02:22:38;49.35;;;37.40;;
14984;SDS011;7588;62.368;25.902;2022-08-19T02:25:06;43.45;;;34.97;;
14984;SDS011;7588;62.368;25.902;2022-08-19T02:27:34;44.65;;;35.05;;
14984;SDS011;7588;62.368;25.902;2022-08-19T02:29:59;45.75;;;35.30;;
14984;SDS011;7588;62.368;25.902;2022-08-19T02:32:26;47.20;;;36.50;;
14984;SDS011;7588;62.368;25.902;2022-08-19T02:34:52;47.78;;;38.97;;
14984;SDS011;7588;62.368;25.902;2022-08-19T02:37:18;45.13;;;36.45;;
14984;SDS011;7588;62.368;25.902;2022-08-19T02:40:02;50.47;;;39.42;;
14984;SDS011;7588;62.368;25.902;2022-08-19T02:42:28;53.47;;;39.78;;
14984;SDS011;7588;62.368;25.902;2022-08-19T02:44:55;46.47;;;39.30;;
14984;SDS011;7588;62.368;25.902;2022-08-19T02:47:21;47.95;;;37.65;;
14984;SDS011;7588;62.368;25.902;2022-08-19T02:49:47;50.20;;;38.20;;
14984;SDS011;7588;62.368;25.902;2022-08-19T02:52:15;49.17;;;38.17;;
14984;SDS011;7588;62.368;25.902;2022-08-19T02:54:41;51.63;;;41.08;;
14984;SDS011;7588;62.368;25.902;2022-08-19T02:57:07;53.22;;;40.28;;
14984;SDS011;7588;62.368;25.902;2022-08-19T02:59:33;49.50;;;40.80;;
14984;SDS011;7588;62.368;25.902;2022-08-19T03:01:59;49.63;;;40.17;;
14984;SDS011;7588;62.368;25.902;2022-08-19T03:04:25;53.15;;;42.47;;
14984;SDS011;7588;62.368;25.902;2022-08-19T03:06:51;54.05;;;41.95;;
14984;SDS011;7588;62.368;25.902;2022-08-19T03:09:17;57.85;;;42.55;;
14984;SDS011;7588;62.368;25.902;2022-08-19T03:11:44;54.22;;;43.63;;
14984;SDS011;7588;62.368;25.902;2022-08-19T03:14:11;60.35;;;45.22;;
14984;SDS011;7588;62.368;25.902;2022-08-19T03:16:42;54.47;;;43.70;;
14984;SDS011;7588;62.368;25.902;2022-08-19T03:19:10;48.40;;;40.97;;
14984;SDS011;7588;62.368;25.902;2022-08-19T03:21:36;47.22;;;40.85;;
14984;SDS011;7588;62.368;25.902;2022-08-19T03:24:02;50.88;;;42.03;;
14984;SDS011;7588;62.368;25.902;2022-08-19T03:26:30;50.60;;;40.97;;
14984;SDS011;7588;62.368;25.902;2022-08-19T03:28:56;47.63;;;40.72;;
14984;SDS011;7588;62.368;25.902;2022-08-19T03:31:25;47.17;;;39.45;;
14984;SDS011;7588;62.368;25.902;2022-08-19T03:33:51;51.92;;;41.97;;
14984;SDS011;7588;62.368;25.902;2022-08-19T03:36:20;52.08;;;42.65;;
14984;SDS011;7588;62.368;25.902;2022-08-19T03:38:49;49.25;;;42.33;;
14984;SDS011;7588;62.368;25.902;2022-08-19T03:41:24;48.60;;;41.72;;
14984;SDS011;7588;62.368;25.902;2022-08-19T03:43:52;50.92;;;40.78;;
14984;SDS011;7588;62.368;25.902;2022-08-19T03:46:20;49.17;;;41.55;;
14984;SDS011;7588;62.368;25.902;2022-08-19T03:48:48;53.03;;;43.58;;
14984;SDS011;7588;62.368;25.902;2022-08-19T03:51:21;49.45;;;42.08;;
14984;SDS011;7588;62.368;25.902;2022-08-19T03:53:49;49.40;;;41.85;;
14984;SDS011;7588;62.368;25.902;2022-08-19T03:56:16;45.10;;;39.33;;
14984;SDS011;7588;62.368;25.902;2022-08-19T03:58:43;45.55;;;38.25;;
14984;SDS011;7588;62.368;25.902;2022-08-19T04:01:10;46.92;;;39.90;;
14984;SDS011;7588;62.368;25.902;2022-08-19T04:03:38;45.75;;;38.83;;
14984;SDS011;7588;62.368;25.902;2022-08-19T04:06:14;43.70;;;37.15;;
14984;SDS011;7588;62.368;25.902;2022-08-19T04:08:42;40.13;;;35.55;;
14984;SDS011;7588;62.368;25.902;2022-08-19T04:11:10;41.78;;;37.30;;
14984;SDS011;7588;62.368;25.902;2022-08-19T04:13:41;40.85;;;36.55;;
14984;SDS011;7588;62.368;25.902;2022-08-19T04:16:10;41.17;;;36.90;;
14984;SDS011;7588;62.368;25.902;2022-08-19T04:18:36;40.58;;;36.38;;
14984;SDS011;7588;62.368;25.902;2022-08-19T04:21:03;41.45;;;36.78;;
14984;SDS011;7588;62.368;25.902;2022-08-19T04:23:30;39.38;;;35.20;;
14984;SDS011;7588;62.368;25.902;2022-08-19T04:25:57;39.25;;;35.20;;
14984;SDS011;7588;62.368;25.902;2022-08-19T04:28:23;41.63;;;36.35;;
14984;SDS011;7588;62.368;25.902;2022-08-19T04:30:50;37.85;;;34.05;;
14984;SDS011;7588;62.368;25.902;2022-08-19T04:33:20;38.75;;;34.58;;
14984;SDS011;7588;62.368;25.902;2022-08-19T04:35:48;36.13;;;32.63;;
14984;SDS011;7588;62.368;25.902;2022-08-19T04:38:16;34.60;;;31.23;;
14984;SDS011;7588;62.368;25.902;2022-08-19T04:40:44;36.42;;;32.83;;
14984;SDS011;7588;62.368;25.902;2022-08-19T04:43:32;35.03;;;31.77;;
14984;SDS011;7588;62.368;25.902;2022-08-19T04:46:03;35.63;;;32.17;;
14984;SDS011;7588;62.368;25.902;2022-08-19T04:48:31;36.65;;;33.30;;
14984;SDS011;7588;62.368;25.902;2022-08-19T04:50:57;33.95;;;30.55;;
14984;SDS011;7588;62.368;25.902;2022-08-19T04:53:30;32.83;;;29.50;;
14984;SDS011;7588;62.368;25.902;2022-08-19T04:55:58;31.10;;;28.30;;
14984;SDS011;7588;62.368;25.902;2022-08-19T04:58:27;30.15;;;27.45;;
14984;SDS011;7588;62.368;25.902;2022-08-19T05:00:53;30.63;;;28.02;;
14984;SDS011;7588;62.368;25.902;2022-08-19T05:03:20;28.33;;;25.55;;
14984;SDS011;7588;62.368;25.902;2022-08-19T05:05:47;28.60;;;26.00;;
14984;SDS011;7588;62.368;25.902;2022-08-19T05:08:15;27.30;;;24.95;;
14984;SDS011;7588;62.368;25.902;2022-08-19T05:10:46;24.45;;;22.27;;
14984;SDS011;7588;62.368;25.902;2022-08-19T05:13:15;24.10;;;22.02;;
14984;SDS011;7588;62.368;25.902;2022-08-19T05:15:42;24.02;;;21.52;;
14984;SDS011;7588;62.368;25.902;2022-08-19T05:18:09;22.45;;;20.58;;
14984;SDS011;7588;62.368;25.902;2022-08-19T05:20:54;21.83;;;20.02;;
14984;SDS011;7588;62.368;25.902;2022-08-19T05:23:38;22.05;;;20.10;;
14984;SDS011;7588;62.368;25.902;2022-08-19T05:26:04;22.38;;;20.45;;
14984;SDS011;7588;62.368;25.902;2022-08-19T05:28:30;21.80;;;19.70;;
14984;SDS011;7588;62.368;25.902;2022-08-19T05:30:56;22.00;;;20.13;;
14984;SDS011;7588;62.368;25.902;2022-08-19T05:33:22;20.77;;;19.00;;
14984;SDS011;7588;62.368;25.902;2022-08-19T05:35:49;19.55;;;17.88;;
14984;SDS011;7588;62.368;25.902;2022-08-19T05:38:18;20.83;;;18.95;;
14984;SDS011;7588;62.368;25.902;2022-08-19T05:40:44;19.90;;;18.08;;
14984;SDS011;7588;62.368;25.902;2022-08-19T05:43:12;20.15;;;18.45;;
14984;SDS011;7588;62.368;25.902;2022-08-19T05:45:41;20.38;;;18.48;;
14984;SDS011;7588;62.368;25.902;2022-08-19T05:48:07;19.73;;;18.02;;
14984;SDS011;7588;62.368;25.902;2022-08-19T05:50:40;19.02;;;17.42;;
14984;SDS011;7588;62.368;25.902;2022-08-19T05:53:07;20.50;;;18.35;;
14984;SDS011;7588;62.368;25.902;2022-08-19T05:55:34;19.38;;;17.55;;
14984;SDS011;7588;62.368;25.902;2022-08-19T05:58:00;18.85;;;17.10;;
14984;SDS011;7588;62.368;25.902;2022-08-19T06:00:26;20.20;;;18.13;;
14984;SDS011;7588;62.368;25.902;2022-08-19T06:02:52;19.08;;;17.20;;
14984;SDS011;7588;62.368;25.902;2022-08-19T06:05:21;18.63;;;16.83;;
14984;SDS011;7588;62.368;25.902;2022-08-19T06:07:47;18.40;;;16.58;;
14984;SDS011;7588;62.368;25.902;2022-08-19T06:10:13;18.67;;;16.90;;
14984;SDS011;7588;62.368;25.902;2022-08-19T06:12:39;20.15;;;18.05;;
14984;SDS011;7588;62.368;25.902;2022-08-19T06:15:09;19.15;;;17.45;;
14984;SDS011;7588;62.368;25.902;2022-08-19T06:17:37;21.88;;;16.27;;
14984;SDS011;7588;62.368;25.902;2022-08-19T06:20:07;18.25;;;16.63;;
14984;SDS011;7588;62.368;25.902;2022-08-19T06:22:41;18.05;;;16.25;;
14984;SDS011;7588;62.368;25.902;2022-08-19T06:25:09;17.77;;;16.25;;
14984;SDS011;7588;62.368;25.902;2022-08-19T06:27:36;16.90;;;15.40;;
14984;SDS011;7588;62.368;25.902;2022-08-19T06:30:03;18.17;;;16.30;;
14984;SDS011;7588;62.368;25.902;2022-08-19T06:32:30;18.38;;;16.77;;
14984;SDS011;7588;62.368;25.902;2022-08-19T06:34:56;17.48;;;15.85;;
14984;SDS011;7588;62.368;25.902;2022-08-19T06:37:22;17.63;;;15.90;;
14984;SDS011;7588;62.368;25.902;2022-08-19T06:39:48;16.67;;;15.25;;
14984;SDS011;7588;62.368;25.902;2022-08-19T06:42:15;16.55;;;15.13;;
14984;SDS011;7588;62.368;25.902;2022-08-19T06:44:44;16.77;;;15.13;;
14984;SDS011;7588;62.368;25.902;2022-08-19T06:47:12;17.48;;;15.60;;
14984;SDS011;7588;62.368;25.902;2022-08-19T06:49:40;16.67;;;14.98;;
14984;SDS011;7588;62.368;25.902;2022-08-19T06:52:07;16.05;;;14.45;;
14984;SDS011;7588;62.368;25.902;2022-08-19T06:54:33;15.80;;;14.23;;
14984;SDS011;7588;62.368;25.902;2022-08-19T06:56:59;14.38;;;13.07;;
14984;SDS011;7588;62.368;25.902;2022-08-19T06:59:29;15.40;;;13.90;;
14984;SDS011;7588;62.368;25.902;2022-08-19T07:01:58;15.13;;;13.55;;
14984;SDS011;7588;62.368;25.902;2022-08-19T07:04:29;14.73;;;13.30;;
14984;SDS011;7588;62.368;25.902;2022-08-19T07:07:00;15.32;;;13.73;;
14984;SDS011;7588;62.368;25.902;2022-08-19T07:09:28;14.18;;;12.68;;
14984;SDS011;7588;62.368;25.902;2022-08-19T07:11:54;16.98;;;12.73;;
14984;SDS011;7588;62.368;25.902;2022-08-19T07:14:22;16.70;;;12.68;;
14984;SDS011;7588;62.368;25.902;2022-08-19T07:16:50;14.50;;;13.00;;
14984;SDS011;7588;62.368;25.902;2022-08-19T07:19:17;14.77;;;12.20;;
14984;SDS011;7588;62.368;25.902;2022-08-19T07:21:44;13.95;;;12.63;;
14984;SDS011;7588;62.368;25.902;2022-08-19T07:24:11;12.98;;;11.40;;
14984;SDS011;7588;62.368;25.902;2022-08-19T07:26:38;16.13;;;13.13;;
14984;SDS011;7588;62.368;25.902;2022-08-19T07:29:06;13.07;;;11.80;;
14984;SDS011;7588;62.368;25.902;2022-08-19T07:31:32;13.60;;;12.30;;
14984;SDS011;7588;62.368;25.902;2022-08-19T07:34:02;17.30;;;11.70;;
14984;SDS011;7588;62.368;25.902;2022-08-19T07:36:33;13.88;;;12.60;;
14984;SDS011;7588;62.368;25.902;2022-08-19T07:39:02;13.20;;;11.95;;
14984;SDS011;7588;62.368;25.902;2022-08-19T07:41:32;13.57;;;12.27;;
14984;SDS011;7588;62.368;25.902;2022-08-19T07:44:00;12.98;;;11.70;;
14984;SDS011;7588;62.368;25.902;2022-08-19T07:46:29;13.52;;;12.05;;
14984;SDS011;7588;62.368;25.902;2022-08-19T07:48:58;14.45;;;12.30;;
14984;SDS011;7588;62.368;25.902;2022-08-19T07:51:25;13.65;;;11.55;;
14984;SDS011;7588;62.368;25.902;2022-08-19T07:53:53;14.20;;;11.27;;
14984;SDS011;7588;62.368;25.902;2022-08-19T07:56:19;13.13;;;11.95;;
14984;SDS011;7588;62.368;25.902;2022-08-19T07:58:46;15.15;;;11.90;;
14984;SDS011;7588;62.368;25.902;2022-08-19T08:01:21;12.30;;;11.07;;
14984;SDS011;7588;62.368;25.902;2022-08-19T08:03:50;13.25;;;11.35;;
14984;SDS011;7588;62.368;25.902;2022-08-19T08:06:35;11.88;;;10.77;;
14984;SDS011;7588;62.368;25.902;2022-08-19T08:09:22;11.90;;;10.70;;
14984;SDS011;7588;62.368;25.902;2022-08-19T08:11:52;13.77;;;11.18;;
14984;SDS011;7588;62.368;25.902;2022-08-19T08:14:26;12.75;;;11.45;;
14984;SDS011;7588;62.368;25.902;2022-08-19T08:16:58;11.63;;;10.63;;
14984;SDS011;7588;62.368;25.902;2022-08-19T08:19:25;11.77;;;10.57;;
14984;SDS011;7588;62.368;25.902;2022-08-19T08:21:53;12.30;;;10.90;;
14984;SDS011;7588;62.368;25.902;2022-08-19T08:24:21;12.38;;;11.02;;
14984;SDS011;7588;62.368;25.902;2022-08-19T08:26:47;12.27;;;11.07;;
14984;SDS011;7588;62.368;25.902;2022-08-19T08:29:13;14.00;;;12.00;;
14984;SDS011;7588;62.368;25.902;2022-08-19T08:31:40;13.68;;;11.52;;
14984;SDS011;7588;62.368;25.902;2022-08-19T08:34:07;13.25;;;11.40;;
14984;SDS011;7588;62.368;25.902;2022-08-19T08:36:38;13.55;;;10.68;;
14984;SDS011;7588;62.368;25.902;2022-08-19T08:39:08;12.95;;;11.18;;
14984;SDS011;7588;62.368;25.902;2022-08-19T08:41:55;14.85;;;10.45;;
14984;SDS011;7588;62.368;25.902;2022-08-19T08:44:27;11.80;;;10.60;;
14984;SDS011;7588;62.368;25.902;2022-08-19T08:47:01;13.65;;;10.40;;
14984;SDS011;7588;62.368;25.902;2022-08-19T08:54:51;12.05;;;10.85;;
14984;SDS011;7588;62.368;25.902;2022-08-19T08:57:21;12.45;;;11.10;;
14984;SDS011;7588;62.368;25.902;2022-08-19T09:00:09;11.95;;;10.95;;
14984;SDS011;7588;62.368;25.902;2022-08-19T09:02:40;15.38;;;9.98;;
14984;SDS011;7588;62.368;25.902;2022-08-19T09:05:05;11.00;;;9.93;;
14984;SDS011;7588;62.368;25.902;2022-08-19T09:10:19;12.70;;;10.52;;
14984;SDS011;7588;62.368;25.902;2022-08-19T09:15:34;11.38;;;9.80;;
14984;SDS011;7588;62.368;25.902;2022-08-19T09:18:05;10.70;;;9.70;;
14984;SDS011;7588;62.368;25.902;2022-08-19T09:20:33;10.77;;;9.63;;
14984;SDS011;7588;62.368;25.902;2022-08-19T09:22:58;15.00;;;9.55;;
14984;SDS011;7588;62.368;25.902;2022-08-19T09:25:24;10.50;;;9.05;;
14984;SDS011;7588;62.368;25.902;2022-08-19T09:27:51;10.48;;;9.45;;
14984;SDS011;7588;62.368;25.902;2022-08-19T09:30:20;9.25;;;8.45;;
14984;SDS011;7588;62.368;25.902;2022-08-19T09:32:49;19.25;;;9.75;;
14984;SDS011;7588;62.368;25.902;2022-08-19T09:35:18;9.98;;;8.90;;
14984;SDS011;7588;62.368;25.902;2022-08-19T09:37:47;10.30;;;8.65;;
14984;SDS011;7588;62.368;25.902;2022-08-19T09:40:14;9.68;;;8.60;;
14984;SDS011;7588;62.368;25.902;2022-08-19T09:42:41;12.15;;;8.75;;
14984;SDS011;7588;62.368;25.902;2022-08-19T09:45:08;10.10;;;8.02;;
14984;SDS011;7588;62.368;25.902;2022-08-19T09:47:35;11.48;;;8.32;;
14984;SDS011;7588;62.368;25.902;2022-08-19T09:50:03;11.00;;;9.20;;
14984;SDS011;7588;62.368;25.902;2022-08-19T09:52:31;11.88;;;8.95;;
14984;SDS011;7588;62.368;25.902;2022-08-19T09:54:56;9.45;;;8.48;;
14984;SDS011;7588;62.368;25.902;2022-08-19T09:57:22;8.85;;;7.95;;
14984;SDS011;7588;62.368;25.902;2022-08-19T09:59:48;12.27;;;9.10;;
14984;SDS011;7588;62.368;25.902;2022-08-19T10:02:18;12.70;;;8.60;;
14984;SDS011;7588;62.368;25.902;2022-08-19T10:04:44;10.65;;;7.85;;
14984;SDS011;7588;62.368;25.902;2022-08-19T10:07:39;12.18;;;8.55;;
14984;SDS011;7588;62.368;25.902;2022-08-19T10:10:05;9.52;;;8.30;;
14984;SDS011;7588;62.368;25.902;2022-08-19T10:12:32;14.25;;;8.30;;
14984;SDS011;7588;62.368;25.902;2022-08-19T10:14:59;9.70;;;8.70;;
14984;SDS011;7588;62.368;25.902;2022-08-19T10:17:25;9.15;;;8.10;;
14984;SDS011;7588;62.368;25.902;2022-08-19T10:19:51;9.02;;;7.72;;
14984;SDS011;7588;62.368;25.902;2022-08-19T10:22:18;11.35;;;8.23;;
14984;SDS011;7588;62.368;25.902;2022-08-19T10:24:45;13.52;;;8.43;;
14984;SDS011;7588;62.368;25.902;2022-08-19T10:27:11;8.90;;;7.65;;
14984;SDS011;7588;62.368;25.902;2022-08-19T10:29:39;10.32;;;7.55;;
14984;SDS011;7588;62.368;25.902;2022-08-19T10:32:06;9.40;;;7.65;;
14984;SDS011;7588;62.368;25.902;2022-08-19T10:34:33;11.88;;;7.13;;
14984;SDS011;7588;62.368;25.902;2022-08-19T10:37:03;8.57;;;7.68;;
14984;SDS011;7588;62.368;25.902;2022-08-19T10:39:33;9.63;;;7.75;;
14984;SDS011;7588;62.368;25.902;2022-08-19T10:42:04;8.90;;;8.00;;
14984;SDS011;7588;62.368;25.902;2022-08-19T10:44:35;8.60;;;7.38;;
14984;SDS011;7588;62.368;25.902;2022-08-19T10:47:01;8.75;;;7.85;;
14984;SDS011;7588;62.368;25.902;2022-08-19T10:49:28;8.05;;;7.35;;
14984;SDS011;7588;62.368;25.902;2022-08-19T10:51:55;11.20;;;7.60;;
14984;SDS011;7588;62.368;25.902;2022-08-19T10:54:40;11.68;;;7.45;;
14984;SDS011;7588;62.368;25.902;2022-08-19T10:57:25;9.00;;;7.57;;
14984;SDS011;7588;62.368;25.902;2022-08-19T10:59:54;8.70;;;7.43;;
14984;SDS011;7588;62.368;25.902;2022-08-19T11:02:21;7.93;;;7.10;;
14984;SDS011;7588;62.368;25.902;2022-08-19T11:04:47;8.85;;;8.05;;
14984;SDS011;7588;62.368;25.902;2022-08-19T11:07:15;8.75;;;7.30;;
14984;SDS011;7588;62.368;25.902;2022-08-19T11:09:41;8.30;;;7.50;;
14984;SDS011;7588;62.368;25.902;2022-08-19T11:12:08;11.15;;;7.07;;
14984;SDS011;7588;62.368;25.902;2022-08-19T11:14:35;7.82;;;7.03;;
14984;SDS011;7588;62.368;25.902;2022-08-19T11:17:02;10.82;;;7.25;;
14984;SDS011;7588;62.368;25.902;2022-08-19T11:19:30;10.57;;;7.70;;
14984;SDS011;7588;62.368;25.902;2022-08-19T11:21:56;7.93;;;7.00;;
14984;SDS011;7588;62.368;25.902;2022-08-19T11:24:22;9.43;;;7.30;;
14984;SDS011;7588;62.368;25.902;2022-08-19T11:26:50;13.00;;;7.82;;
14984;SDS011;7588;62.368;25.902;2022-08-19T11:29:19;8.32;;;6.82;;
14984;SDS011;7588;62.368;25.902;2022-08-19T11:31:47;8.13;;;6.97;;
14984;SDS011;7588;62.368;25.902;2022-08-19T11:34:19;7.60;;;6.82;;
14984;SDS011;7588;62.368;25.902;2022-08-19T11:36:50;10.68;;;7.50;;
14984;SDS011;7588;62.368;25.902;2022-08-19T11:39:17;9.55;;;8.70;;
14984;SDS011;7588;62.368;25.902;2022-08-19T11:41:44;21.90;;;19.95;;
14984;SDS011;7588;62.368;25.902;2022-08-19T11:44:11;13.00;;;11.90;;
14984;SDS011;7588;62.368;25.902;2022-08-19T11:46:38;9.55;;;6.93;;
14984;SDS011;7588;62.368;25.902;2022-08-19T11:49:05;11.45;;;7.60;;
14984;SDS011;7588;62.368;25.902;2022-08-19T11:51:34;8.18;;;7.38;;
14984;SDS011;7588;62.368;25.902;2022-08-19T11:54:00;9.80;;;7.68;;
14984;SDS011;7588;62.368;25.902;2022-08-19T11:56:27;11.52;;;9.40;;
14984;SDS011;7588;62.368;25.902;2022-08-19T11:58:53;9.82;;;7.80;;
14984;SDS011;7588;62.368;25.902;2022-08-19T12:01:22;10.63;;;7.70;;
14984;SDS011;7588;62.368;25.902;2022-08-19T12:03:50;10.23;;;7.75;;
14984;SDS011;7588;62.368;25.902;2022-08-19T12:06:22;9.48;;;7.25;;
14984;SDS011;7588;62.368;25.902;2022-08-19T12:08:50;8.20;;;7.10;;
14984;SDS011;7588;62.368;25.902;2022-08-19T12:11:17;8.25;;;7.35;;
14984;SDS011;7588;62.368;25.902;2022-08-19T12:13:43;9.10;;;7.50;;
14984;SDS011;7588;62.368;25.902;2022-08-19T12:16:15;8.30;;;7.50;;
14984;SDS011;7588;62.368;25.902;2022-08-19T12:18:45;8.25;;;7.28;;
14984;SDS011;7588;62.368;25.902;2022-08-19T12:21:12;12.50;;;7.65;;
14984;SDS011;7588;62.368;25.902;2022-08-19T12:23:40;8.43;;;7.13;;
14984;SDS011;7588;62.368;25.902;2022-08-19T12:26:06;9.55;;;7.30;;
14984;SDS011;7588;62.368;25.902;2022-08-19T12:28:34;9.93;;;7.07;;
14984;SDS011;7588;62.368;25.902;2022-08-19T12:30:59;9.55;;;7.10;;
14984;SDS011;7588;62.368;25.902;2022-08-19T12:33:25;8.80;;;7.55;;
14984;SDS011;7588;62.368;25.902;2022-08-19T12:35:53;8.25;;;7.35;;
14984;SDS011;7588;62.368;25.902;2022-08-19T12:38:19;10.48;;;7.95;;
14984;SDS011;7588;62.368;25.902;2022-08-19T12:40:48;8.70;;;7.80;;
14984;SDS011;7588;62.368;25.902;2022-08-19T12:43:14;8.65;;;7.72;;
14984;SDS011;7588;62.368;25.902;2022-08-19T12:45:42;8.32;;;7.60;;
14984;SDS011;7588;62.368;25.902;2022-08-19T12:48:10;8.57;;;7.70;;
14984;SDS011;7588;62.368;25.902;2022-08-19T12:50:35;8.38;;;7.53;;
14984;SDS011;7588;62.368;25.902;2022-08-19T12:53:03;9.23;;;8.35;;
14984;SDS011;7588;62.368;25.902;2022-08-19T12:55:29;9.30;;;7.65;;
14984;SDS011;7588;62.368;25.902;2022-08-19T12:57:55;10.70;;;8.15;;
14984;SDS011;7588;62.368;25.902;2022-08-19T13:00:21;8.25;;;7.45;;
14984;SDS011;7588;62.368;25.902;2022-08-19T13:02:49;10.77;;;8.07;;
14984;SDS011;7588;62.368;25.902;2022-08-19T13:05:20;9.30;;;8.13;;
14984;SDS011;7588;62.368;25.902;2022-08-19T13:07:50;11.27;;;7.13;;
14984;SDS011;7588;62.368;25.902;2022-08-19T13:10:21;8.45;;;7.10;;
14984;SDS011;7588;62.368;25.902;2022-08-19T13:12:53;9.27;;;7.88;;
14984;SDS011;7588;62.368;25.902;2022-08-19T13:15:22;9.32;;;8.38;;
14984;SDS011;7588;62.368;25.902;2022-08-19T13:17:49;8.90;;;8.00;;
14984;SDS011;7588;62.368;25.902;2022-08-19T13:20:18;11.02;;;9.27;;
14984;SDS011;7588;62.368;25.902;2022-08-19T13:22:45;9.75;;;8.75;;
14984;SDS011;7588;62.368;25.902;2022-08-19T13:25:13;9.63;;;8.23;;
14984;SDS011;7588;62.368;25.902;2022-08-19T13:27:42;11.75;;;8.50;;
14984;SDS011;7588;62.368;25.902;2022-08-19T13:30:09;11.30;;;8.77;;
14984;SDS011;7588;62.368;25.902;2022-08-19T13:32:54;12.85;;;8.68;;
14984;SDS011;7588;62.368;25.902;2022-08-19T13:35:39;9.80;;;8.35;;
14984;SDS011;7588;62.368;25.902;2022-08-19T13:38:12;9.75;;;8.85;;
14984;SDS011;7588;62.368;25.902;2022-08-19T13:40:39;9.73;;;8.63;;
14984;SDS011;7588;62.368;25.902;2022-08-19T13:43:05;9.50;;;8.30;;
14984;SDS011;7588;62.368;25.902;2022-08-19T13:45:33;12.68;;;8.95;;
14984;SDS011;7588;62.368;25.902;2022-08-19T13:47:59;15.27;;;9.40;;
14984;SDS011;7588;62.368;25.902;2022-08-19T13:50:30;17.50;;;9.07;;
14984;SDS011;7588;62.368;25.902;2022-08-19T13:52:56;11.25;;;9.60;;
14984;SDS011;7588;62.368;25.902;2022-08-19T13:55:22;10.98;;;8.88;;
14984;SDS011;7588;62.368;25.902;2022-08-19T13:57:53;11.15;;;9.55;;
14984;SDS011;7588;62.368;25.902;2022-08-19T14:00:24;9.38;;;8.57;;
14984;SDS011;7588;62.368;25.902;2022-08-19T14:02:52;9.32;;;8.50;;
14984;SDS011;7588;62.368;25.902;2022-08-19T14:05:21;10.38;;;9.23;;
14984;SDS011;7588;62.368;25.902;2022-08-19T14:07:47;10.27;;;9.10;;
14984;SDS011;7588;62.368;25.902;2022-08-19T14:10:13;9.57;;;8.68;;
14984;SDS011;7588;62.368;25.902;2022-08-19T14:12:40;10.50;;;8.68;;
14984;SDS011;7588;62.368;25.902;2022-08-19T14:15:06;10.05;;;8.55;;
14984;SDS011;7588;62.368;25.902;2022-08-19T14:17:34;10.25;;;9.20;;
14984;SDS011;7588;62.368;25.902;2022-08-19T14:20:02;9.68;;;8.75;;
14984;SDS011;7588;62.368;25.902;2022-08-19T14:22:33;10.20;;;9.20;;
14984;SDS011;7588;62.368;25.902;2022-08-19T14:25:00;10.18;;;8.68;;
14984;SDS011;7588;62.368;25.902;2022-08-19T14:27:26;9.13;;;8.00;;
14984;SDS011;7588;62.368;25.902;2022-08-19T14:29:52;10.55;;;7.82;;
14984;SDS011;7588;62.368;25.902;2022-08-19T14:32:17;10.75;;;8.43;;
14984;SDS011;7588;62.368;25.902;2022-08-19T14:34:43;9.60;;;8.60;;
14984;SDS011;7588;62.368;25.902;2022-08-19T14:37:12;8.20;;;7.50;;
14984;SDS011;7588;62.368;25.902;2022-08-19T14:39:42;8.68;;;7.90;;
14984;SDS011;7588;62.368;25.902;2022-08-19T14:42:11;8.85;;;7.90;;
14984;SDS011;7588;62.368;25.902;2022-08-19T14:44:39;9.35;;;7.70;;
14984;SDS011;7588;62.368;25.902;2022-08-19T14:47:05;8.88;;;7.97;;